createdAt,value
2022-10-11T00:00:11.457Z,99794.97
2022-10-11T00:02:38.799Z,99797.88
2022-10-11T00:05:05.985Z,99793.88
2022-10-11T00:07:32.748Z,99795.34
2022-10-11T00:09:59.990Z,99790.66
2022-10-11T00:12:26.848Z,99791.75
2022-10-11T00:14:53.651Z,99798.88
2022-10-11T00:17:20.568Z,99799.72
2022-10-11T00:19:47.353Z,99792.72
2022-10-11T00:22:14.608Z,99793.88
2022-10-11T00:24:41.514Z,99791.75
2022-10-11T00:27:08.351Z,99794.47
2022-10-11T00:29:35.303Z,99792.91
2022-10-11T00:32:02.080Z,99797.47
2022-10-11T00:34:28.878Z,99794.16
2022-10-11T00:36:55.852Z,99787.63
2022-10-11T00:39:23.120Z,99797.09
2022-10-11T00:41:50.093Z,99797.69
2022-10-11T00:44:22.982Z,99790.25
2022-10-11T00:47:03.271Z,99805.09
2022-10-11T00:49:39.325Z,99795.81
2022-10-11T00:52:14.435Z,99806.38
2022-10-11T00:54:43.784Z,99808.31
2022-10-11T00:57:17.064Z,99801.69
2022-10-11T00:59:49.351Z,99810.19
2022-10-11T01:02:17.871Z,99816.44
2022-10-11T01:04:45.956Z,99810.00
2022-10-11T01:07:13.402Z,99817.78
2022-10-11T01:09:40.273Z,99818.28
2022-10-11T01:12:18.757Z,99820.34
2022-10-11T01:14:54.763Z,99818.75
2022-10-11T01:17:43.038Z,99821.41
2022-10-11T01:20:12.679Z,99816.84
2022-10-11T01:22:55.168Z,99823.56
2022-10-11T01:25:56.160Z,99814.78
2022-10-11T01:28:52.522Z,99813.28
2022-10-11T01:31:37.206Z,99814.19
2022-10-11T01:34:15.307Z,99814.31
2022-10-11T01:36:49.835Z,99809.81
2022-10-11T01:39:44.348Z,99812.53
2022-10-11T01:42:13.357Z,99817.13
2022-10-11T01:44:43.119Z,99822.22
2022-10-11T01:47:09.957Z,99821.31
2022-10-11T01:49:36.837Z,99817.41
2022-10-11T01:52:07.161Z,99823.47
2022-10-11T01:55:08.648Z,99825.22
2022-10-11T01:58:08.048Z,99838.06
2022-10-11T02:00:52.379Z,99839.44
2022-10-11T02:03:42.173Z,99830.47
2022-10-11T02:06:24.197Z,99832.59
2022-10-11T02:09:08.413Z,99829.47
2022-10-11T02:11:36.892Z,99837.75
2022-10-11T02:14:11.870Z,99824.84
2022-10-11T02:16:46.642Z,99836.81
2022-10-11T02:19:17.101Z,99831.63
2022-10-11T02:21:47.432Z,99842.94
2022-10-11T02:24:22.351Z,99840.03
2022-10-11T02:26:53.048Z,99836.41
2022-10-11T02:29:22.957Z,99839.41
2022-10-11T02:31:51.283Z,99843.69
2022-10-11T02:34:27.016Z,99847.47
2022-10-11T02:37:15.984Z,99849.69
2022-10-11T02:39:49.021Z,99849.91
2022-10-11T02:42:24.546Z,99843.91
2022-10-11T02:44:56.620Z,99847.06
2022-10-11T02:47:23.702Z,99851.75
2022-10-11T02:49:50.594Z,99851.97
2022-10-11T02:52:17.503Z,99848.81
2022-10-11T02:54:44.345Z,99848.97
2022-10-11T02:57:11.245Z,99850.16
2022-10-11T02:59:38.163Z,99856.69
2022-10-11T03:02:05.126Z,99859.91
2022-10-11T03:04:32.465Z,99849.44
2022-10-11T03:06:59.230Z,99855.44
2022-10-11T03:09:26.305Z,99856.78
2022-10-11T03:11:53.083Z,99852.16
2022-10-11T03:14:19.896Z,99855.28
2022-10-11T03:16:46.673Z,99855.69
2022-10-11T03:19:18.316Z,99866.03
2022-10-11T03:21:46.113Z,99858.00
2022-10-11T03:24:13.006Z,99864.69
2022-10-11T03:26:39.738Z,99864.78
2022-10-11T03:29:06.627Z,99866.59
2022-10-11T03:31:33.426Z,99874.50
2022-10-11T03:34:00.207Z,99871.03
2022-10-11T03:36:27.025Z,99862.75
2022-10-11T03:38:53.848Z,99868.81
2022-10-11T03:41:20.764Z,99882.47
2022-10-11T03:43:47.730Z,99874.28
2022-10-11T03:46:14.504Z,99881.63
2022-10-11T03:48:41.359Z,99877.59
2022-10-11T03:51:08.186Z,99874.19
2022-10-11T03:53:35.071Z,99876.25
2022-10-11T03:56:07.359Z,99881.72
2022-10-11T03:58:35.412Z,99872.47
2022-10-11T04:01:02.310Z,99874.78
2022-10-11T04:03:31.812Z,99875.50
2022-10-11T04:06:01.311Z,99878.03
2022-10-11T04:08:28.159Z,99882.44
2022-10-11T04:10:54.980Z,99879.31
2022-10-11T04:13:21.995Z,99882.22
2022-10-11T04:15:48.681Z,99880.03
2022-10-11T04:18:15.713Z,99879.72
2022-10-11T04:20:42.422Z,99888.41
2022-10-11T04:23:09.472Z,99894.00
2022-10-11T04:25:40.495Z,99886.34
2022-10-11T04:28:07.600Z,99881.28
2022-10-11T04:30:34.491Z,99891.81
2022-10-11T04:33:02.927Z,99889.19
2022-10-11T04:35:29.693Z,99893.88
2022-10-11T04:37:56.832Z,99890.69
2022-10-11T04:40:23.742Z,99891.97
2022-10-11T04:42:50.475Z,99891.97
2022-10-11T04:45:17.316Z,99883.06
2022-10-11T04:47:44.127Z,99884.50
2022-10-11T04:50:11.016Z,99889.97
2022-10-11T04:52:37.806Z,99893.84
2022-10-11T04:55:05.023Z,99892.19
2022-10-11T04:57:32.237Z,99898.03
2022-10-11T04:59:59.209Z,99900.16
2022-10-11T05:02:26.130Z,99894.00
2022-10-11T05:04:52.876Z,99895.75
2022-10-11T05:07:20.094Z,99897.81
2022-10-11T05:09:46.868Z,99896.13
2022-10-11T05:12:13.659Z,99906.22
2022-10-11T05:14:40.469Z,99907.28
2022-10-11T05:17:07.488Z,99904.97
2022-10-11T05:19:34.255Z,99912.53
2022-10-11T05:22:01.100Z,99914.38
2022-10-11T05:24:27.927Z,99915.25
2022-10-11T05:26:54.725Z,99918.16
2022-10-11T05:29:21.501Z,99919.31
2022-10-11T05:31:48.381Z,99920.25
2022-10-11T05:34:15.243Z,99929.53
2022-10-11T05:36:42.012Z,99925.91
2022-10-11T05:39:09.248Z,99930.22
2022-10-11T05:41:36.030Z,99929.63
2022-10-11T05:44:02.834Z,99930.75
2022-10-11T05:46:29.692Z,99938.47
2022-10-11T05:48:56.492Z,99937.56
2022-10-11T05:51:23.584Z,99936.34
2022-10-11T05:53:50.355Z,99943.47
2022-10-11T05:56:23.085Z,99943.00
2022-10-11T05:58:50.810Z,99953.75
2022-10-11T06:01:23.293Z,99957.59
2022-10-11T06:03:50.260Z,99960.22
2022-10-11T06:06:17.844Z,99963.28
2022-10-11T06:08:44.797Z,99963.59
2022-10-11T06:11:12.439Z,99969.69
2022-10-11T06:13:39.772Z,99974.34
2022-10-11T06:16:08.231Z,99981.31
2022-10-11T06:18:35.225Z,99977.75
2022-10-11T06:21:02.639Z,99980.94
2022-10-11T06:23:29.675Z,99985.34
2022-10-11T06:26:00.828Z,99990.25
2022-10-11T06:28:29.346Z,99989.69
2022-10-11T06:30:56.729Z,99995.38
2022-10-11T06:33:24.651Z,99992.19
2022-10-11T06:35:58.881Z,100007.75
2022-10-11T06:38:26.130Z,99997.47
2022-10-11T06:40:53.052Z,99998.16
2022-10-11T06:43:20.079Z,100003.25
2022-10-11T06:45:46.860Z,99996.81
2022-10-11T06:48:14.413Z,100007.06
2022-10-11T06:50:59.220Z,99995.97
2022-10-11T06:53:28.355Z,100002.59
2022-10-11T06:56:02.992Z,99997.88
2022-10-11T06:58:30.515Z,99995.19
2022-10-11T07:01:05.550Z,100001.81
2022-10-11T07:03:33.056Z,100005.19
2022-10-11T07:06:08.445Z,100005.75
2022-10-11T07:08:36.600Z,100015.00
2022-10-11T07:11:08.862Z,100018.03
2022-10-11T07:13:36.600Z,100017.78
2022-10-11T07:16:05.875Z,100016.72
2022-10-11T07:18:33.048Z,100020.38
2022-10-11T07:21:04.202Z,100024.31
2022-10-11T07:23:31.411Z,100025.13
2022-10-11T07:25:58.628Z,100029.34
2022-10-11T07:28:25.831Z,100034.41
2022-10-11T07:30:52.767Z,100036.47
2022-10-11T07:33:19.789Z,100035.25
2022-10-11T07:35:48.618Z,100035.09
2022-10-11T07:38:16.883Z,100040.88
2022-10-11T07:40:47.340Z,100043.84
2022-10-11T07:43:14.323Z,100040.59
2022-10-11T07:45:42.756Z,100037.50
2022-10-11T07:48:09.702Z,100044.22
2022-10-11T07:50:36.572Z,100044.38
2022-10-11T07:53:03.879Z,100041.88
2022-10-11T07:55:34.827Z,100039.09
2022-10-11T07:58:01.607Z,100047.97
2022-10-11T08:00:28.378Z,100040.66
2022-10-11T08:02:55.395Z,100047.53
2022-10-11T08:05:22.198Z,100047.84
2022-10-11T08:07:50.021Z,100049.69
2022-10-11T08:10:16.857Z,100047.81
2022-10-11T08:12:43.620Z,100053.13
2022-10-11T08:15:11.048Z,100056.88
2022-10-11T08:17:37.857Z,100059.41
2022-10-11T08:20:05.619Z,100061.69
2022-10-11T08:22:33.020Z,100050.78
2022-10-11T08:24:59.790Z,100065.75
2022-10-11T08:27:26.618Z,100057.63
2022-10-11T08:29:53.573Z,100064.19
2022-10-11T08:32:20.295Z,100068.88
2022-10-11T08:34:47.102Z,100064.81
2022-10-11T08:37:14.659Z,100062.66
2022-10-11T08:39:41.394Z,100067.63
2022-10-11T08:42:23.754Z,100072.31
2022-10-11T08:45:10.705Z,100074.03
2022-10-11T08:47:44.224Z,100072.94
2022-10-11T08:50:19.525Z,100065.91
2022-10-11T08:53:15.704Z,100072.72
2022-10-11T08:55:49.087Z,100073.78
2022-10-11T08:58:20.529Z,100074.09
2022-10-11T09:00:51.428Z,100071.13
2022-10-11T09:03:33.399Z,100082.66
2022-10-11T09:06:12.619Z,100078.28
2022-10-11T09:08:53.561Z,100078.28
2022-10-11T09:11:32.723Z,100084.50
2022-10-11T09:14:34.403Z,100090.44
2022-10-11T09:17:38.463Z,100081.06
2022-10-11T09:20:25.689Z,100080.91
2022-10-11T09:23:26.534Z,100083.06
2022-10-11T09:26:06.420Z,100080.88
2022-10-11T09:28:51.683Z,100077.09
2022-10-11T09:31:18.774Z,100079.47
2022-10-11T09:33:51.015Z,100084.78
2022-10-11T09:36:37.425Z,100083.03
2022-10-11T09:39:06.708Z,100085.06
2022-10-11T09:41:43.024Z,100088.94
2022-10-11T09:44:19.839Z,100077.34
2022-10-11T09:46:48.788Z,100080.75
2022-10-11T09:49:19.686Z,100076.38
2022-10-11T09:51:57.060Z,100084.16
2022-10-11T09:54:45.678Z,100084.63
2022-10-11T09:57:20.487Z,100080.41
2022-10-11T10:00:11.975Z,100085.28
2022-10-11T10:02:46.884Z,100087.59
2022-10-11T10:05:17.922Z,100082.56
2022-10-11T10:08:06.145Z,100082.41
2022-10-11T10:10:46.125Z,100078.78
2022-10-11T10:13:21.020Z,100082.25
2022-10-11T10:15:50.985Z,100085.63
2022-10-11T10:18:24.536Z,100075.75
2022-10-11T10:20:54.634Z,100081.06
2022-10-11T10:23:33.228Z,100074.81
2022-10-11T10:26:29.177Z,100076.59
2022-10-11T10:29:15.272Z,100078.81
2022-10-11T10:32:09.258Z,100080.50
2022-10-11T10:34:37.208Z,100080.31
2022-10-11T10:37:20.079Z,100071.56
2022-10-11T10:39:54.060Z,100076.41
2022-10-11T10:42:21.419Z,100082.19
2022-10-11T10:44:57.358Z,100070.78
2022-10-11T10:47:47.703Z,100072.91
2022-10-11T10:50:28.597Z,100073.34
2022-10-11T10:53:13.914Z,100066.28
2022-10-11T10:55:45.471Z,100076.16
2022-10-11T10:58:27.611Z,100078.16
2022-10-11T11:01:19.533Z,100070.94
2022-10-11T11:03:58.323Z,100076.75
2022-10-11T11:07:09.636Z,100074.47
2022-10-11T11:09:55.547Z,100079.91
2022-10-11T11:12:41.017Z,100080.47
2022-10-11T11:15:43.800Z,100078.59
2022-10-11T11:18:34.870Z,100072.81
2022-10-11T11:21:30.827Z,100072.22
2022-10-11T11:24:06.840Z,100076.13
2022-10-11T11:26:44.052Z,100073.06
2022-10-11T11:29:37.279Z,100072.56
2022-10-11T11:32:18.639Z,100063.81
2022-10-11T11:34:56.211Z,100066.50
2022-10-11T11:37:31.756Z,100069.16
2022-10-11T11:40:05.983Z,100063.53
2022-10-11T11:42:47.749Z,100069.69
2022-10-11T11:45:20.202Z,100066.19
2022-10-11T11:47:56.760Z,100059.97
2022-10-11T11:50:25.653Z,100058.31
2022-10-11T11:53:18.146Z,100058.97
2022-10-11T11:56:05.085Z,100061.75
2022-10-11T11:58:37.652Z,100058.09
2022-10-11T12:01:18.885Z,100057.13
2022-10-11T12:03:50.722Z,100048.94
2022-10-11T12:06:22.304Z,100054.81
2022-10-11T12:09:24.887Z,100047.69
2022-10-11T12:11:58.468Z,100038.69
2022-10-11T12:14:29.735Z,100048.59
2022-10-11T12:17:07.829Z,100048.59
2022-10-11T12:19:36.618Z,100046.03
2022-10-11T12:22:27.788Z,100046.16
2022-10-11T12:24:58.859Z,100047.81
2022-10-11T12:27:44.782Z,100046.59
2022-10-11T12:30:45.779Z,100041.13
2022-10-11T12:33:25.779Z,100039.91
2022-10-11T12:35:55.619Z,100038.16
2022-10-11T12:38:32.548Z,100037.03
2022-10-11T12:41:11.724Z,100038.81
2022-10-11T12:43:47.636Z,100037.94
2022-10-11T12:46:53.014Z,100041.69
2022-10-11T12:49:32.051Z,100031.47
2022-10-11T12:52:18.529Z,100031.91
2022-10-11T12:55:06.947Z,100026.38
2022-10-11T12:58:05.144Z,100022.16
2022-10-11T13:00:40.937Z,100024.47
2022-10-11T13:03:48.034Z,100022.03
2022-10-11T13:06:14.750Z,100023.25
2022-10-11T13:08:45.357Z,100019.25
2022-10-11T13:11:20.482Z,100024.81
2022-10-11T13:13:55.502Z,100023.25
2022-10-11T13:16:27.011Z,100019.25
2022-10-11T13:18:59.938Z,100019.81
2022-10-11T13:21:36.812Z,100014.13
2022-10-11T13:24:12.853Z,100015.69
2022-10-11T13:26:40.700Z,100007.41
2022-10-11T13:29:42.013Z,100013.69
2022-10-11T13:32:24.792Z,100024.69
2022-10-11T13:35:01.786Z,100019.81
2022-10-11T13:37:30.957Z,100027.03
2022-10-11T13:39:58.554Z,100019.25
2022-10-11T13:42:31.614Z,100020.03
2022-10-11T13:44:59.926Z,100020.50
2022-10-11T13:47:29.809Z,100020.81
2022-10-11T13:50:09.239Z,100015.06
2022-10-11T13:52:36.039Z,100022.69
2022-10-11T13:55:05.588Z,100022.03
2022-10-11T13:57:45.900Z,100023.47
2022-10-11T14:00:16.497Z,100023.59
2022-10-11T14:02:59.994Z,100018.94
2022-10-11T14:05:31.471Z,100026.72
2022-10-11T14:08:05.186Z,100028.91
2022-10-11T14:10:33.111Z,100022.25
2022-10-11T14:13:07.009Z,100024.16
2022-10-11T14:15:36.907Z,100017.94
2022-10-11T14:18:41.439Z,100030.94
2022-10-11T14:21:20.192Z,100023.28
2022-10-11T14:23:50.323Z,100025.06
2022-10-11T14:26:18.879Z,100022.81
2022-10-11T14:28:49.501Z,100023.59
2022-10-11T14:31:16.349Z,100032.59
2022-10-11T14:33:43.262Z,100021.03
2022-10-11T14:36:11.017Z,100034.81
2022-10-11T14:38:37.852Z,100035.56
2022-10-11T14:41:04.740Z,100036.59
2022-10-11T14:43:31.507Z,100042.94
2022-10-11T14:45:58.347Z,100039.03
2022-10-11T14:48:53.617Z,100042.47
2022-10-11T14:51:14.755Z,100040.16
2022-10-11T14:53:41.603Z,100041.59
2022-10-11T14:56:08.672Z,100047.16
2022-10-11T14:58:35.618Z,100042.47
2022-10-11T15:01:02.562Z,100048.13
2022-10-11T15:03:29.597Z,100044.03
2022-10-11T15:05:56.524Z,100044.50
2022-10-11T15:08:23.201Z,100038.69
2022-10-11T15:10:49.982Z,100036.69
2022-10-11T15:13:16.781Z,100044.25
2022-10-11T15:15:44.015Z,100039.03
2022-10-11T15:18:13.402Z,100039.34
2022-10-11T15:20:43.663Z,100037.69
2022-10-11T15:23:11.295Z,100041.03
2022-10-11T15:25:39.725Z,100043.56
2022-10-11T15:28:07.415Z,100045.81
2022-10-11T15:30:41.019Z,100043.03
2022-10-11T15:33:09.051Z,100048.25
2022-10-11T15:35:35.936Z,100051.09
2022-10-11T15:38:03.394Z,100043.34
2022-10-11T15:40:35.549Z,100041.66
2022-10-11T15:43:03.771Z,100048.44
2022-10-11T15:45:30.687Z,100044.88
2022-10-11T15:47:58.058Z,100052.75
2022-10-11T15:50:28.429Z,100044.16
2022-10-11T15:52:55.172Z,100049.03
2022-10-11T15:55:21.960Z,100049.72
2022-10-11T15:57:48.719Z,100054.59
2022-10-11T16:00:21.298Z,100063.97
2022-10-11T16:02:50.970Z,100062.84
2022-10-11T16:05:26.893Z,100063.06
2022-10-11T16:07:54.553Z,100065.09
2022-10-11T16:10:21.453Z,100062.28
2022-10-11T16:12:48.401Z,100061.53
2022-10-11T16:15:15.814Z,100064.84
2022-10-11T16:17:42.572Z,100074.25
2022-10-11T16:20:09.476Z,100070.34
2022-10-11T16:22:36.536Z,100067.25
2022-10-11T16:25:04.763Z,100069.31
2022-10-11T16:27:32.282Z,100080.94
2022-10-11T16:30:00.651Z,100071.59
2022-10-11T16:32:27.788Z,100079.16
2022-10-11T16:34:54.648Z,100084.22
2022-10-11T16:37:21.338Z,100084.53
2022-10-11T16:39:48.165Z,100088.63
2022-10-11T16:42:15.026Z,100084.72
2022-10-11T16:44:41.983Z,100080.03
2022-10-11T16:47:08.811Z,100084.59
2022-10-11T16:49:35.618Z,100095.88
2022-10-11T16:52:02.443Z,100101.84
2022-10-11T16:54:29.641Z,100101.84
2022-10-11T16:56:57.678Z,100097.16
2022-10-11T16:59:25.452Z,100103.00
2022-10-11T17:01:52.420Z,100105.66
2022-10-11T17:04:19.195Z,100098.47
2022-10-11T17:06:45.954Z,100108.31
2022-10-11T17:09:13.008Z,100104.69
2022-10-11T17:11:40.263Z,100109.56
2022-10-11T17:14:07.083Z,100116.28
2022-10-11T17:16:34.949Z,100116.97
2022-10-11T17:19:02.242Z,100115.38
2022-10-11T17:21:29.166Z,100121.81
2022-10-11T17:23:56.205Z,100122.31
2022-10-11T17:26:26.228Z,100118.09
2022-10-11T17:28:55.302Z,100119.06
2022-10-11T17:31:23.378Z,100115.94
2022-10-11T17:33:50.805Z,100115.81
2022-10-11T17:36:24.215Z,100125.19
2022-10-11T17:38:52.335Z,100124.41
2022-10-11T17:41:20.165Z,100128.19
2022-10-11T17:43:48.209Z,100131.59
2022-10-11T17:46:17.248Z,100123.81
2022-10-11T17:48:44.724Z,100133.69
2022-10-11T17:51:17.996Z,100126.69
2022-10-11T17:53:47.119Z,100128.91
2022-10-11T17:56:16.273Z,100119.53
2022-10-11T17:58:43.779Z,100120.94
2022-10-11T18:01:14.253Z,100128.31
2022-10-11T18:03:42.423Z,100128.50
2022-10-11T18:06:12.934Z,100129.13
2022-10-11T18:08:41.167Z,100131.00
2022-10-11T18:11:13.287Z,100133.38
2022-10-11T18:13:41.016Z,100133.19
2022-10-11T18:16:10.670Z,100138.50
2022-10-11T18:18:38.615Z,100136.00
2022-10-11T18:21:05.900Z,100138.78
2022-10-11T18:23:33.007Z,100140.84
2022-10-11T18:25:59.887Z,100139.31
2022-10-11T18:28:27.110Z,100145.56
2022-10-11T18:30:54.830Z,100145.56
2022-10-11T18:33:22.025Z,100143.06
2022-10-11T18:35:49.902Z,100138.38
2022-10-11T18:38:17.678Z,100144.31
2022-10-11T18:40:47.274Z,100147.59
2022-10-11T18:43:14.394Z,100141.84
2022-10-11T18:45:41.560Z,100138.38
2022-10-11T18:48:09.058Z,100137.16
2022-10-11T18:50:36.444Z,100141.19
2022-10-11T18:55:35.890Z,100139.78
2022-10-11T18:58:03.754Z,100142.00
2022-10-11T19:00:40.798Z,100138.03
2022-10-11T19:03:08.422Z,100142.56
2022-10-11T19:05:39.126Z,100140.22
2022-10-11T19:08:06.354Z,100145.06
2022-10-11T19:10:34.743Z,100136.97
2022-10-11T19:13:02.445Z,100139.44
2022-10-11T19:15:29.593Z,100131.50
2022-10-11T19:17:57.056Z,100138.81
2022-10-11T19:20:23.946Z,100144.13
2022-10-11T19:22:51.579Z,100140.69
2022-10-11T19:25:18.905Z,100137.88
2022-10-11T19:27:46.617Z,100134.63
2022-10-11T19:30:13.524Z,100140.69
2022-10-11T19:32:40.524Z,100139.44
2022-10-11T19:35:08.497Z,100136.63
2022-10-11T19:37:35.479Z,100135.38
2022-10-11T19:40:02.738Z,100140.16
2022-10-11T19:42:29.970Z,100138.28
2022-10-11T19:44:57.129Z,100133.88
2022-10-11T19:47:24.851Z,100139.16
2022-10-11T19:49:52.370Z,100139.00
2022-10-11T19:52:19.967Z,100141.88
2022-10-11T19:54:47.031Z,100149.22
2022-10-11T19:57:14.451Z,100149.66
2022-10-11T19:59:41.545Z,100149.75
2022-10-11T20:02:12.961Z,100150.22
2022-10-11T20:04:51.996Z,100149.41
2022-10-11T20:07:19.358Z,100150.31
2022-10-11T20:09:46.272Z,100155.94
2022-10-11T20:12:13.095Z,100157.16
2022-10-11T20:14:39.842Z,100158.94
2022-10-11T20:17:06.653Z,100149.28
2022-10-11T20:19:33.365Z,100159.06
2022-10-11T20:22:01.185Z,100157.28
2022-10-11T20:24:28.625Z,100152.31
2022-10-11T20:26:55.646Z,100157.94
2022-10-11T20:29:24.326Z,100160.44
2022-10-11T20:31:51.467Z,100151.09
2022-10-11T20:34:18.306Z,100157.00
2022-10-11T20:36:48.967Z,100157.13
2022-10-11T20:39:16.751Z,100157.28
2022-10-11T20:41:43.556Z,100155.50
2022-10-11T20:44:10.842Z,100165.16
2022-10-11T20:46:39.205Z,100156.72
2022-10-11T20:49:11.895Z,100165.59
2022-10-11T20:51:40.837Z,100163.22
2022-10-11T20:54:07.648Z,100164.56
2022-10-11T20:56:35.111Z,100163.38
2022-10-11T20:59:02.142Z,100157.91
2022-10-11T21:01:54.042Z,100165.59
2022-10-11T21:04:20.812Z,100175.41
2022-10-11T21:06:49.265Z,100162.09
2022-10-11T21:09:17.226Z,100157.91
2022-10-11T21:11:44.272Z,100161.22
2022-10-11T21:14:11.292Z,100166.03
2022-10-11T21:16:38.074Z,100177.00
2022-10-11T21:19:04.844Z,100174.66
2022-10-11T21:21:31.777Z,100182.28
2022-10-11T21:24:02.456Z,100181.16
2022-10-11T21:26:30.474Z,100181.50
2022-10-11T21:28:57.884Z,100182.78
2022-10-11T21:31:26.625Z,100178.69
2022-10-11T21:33:57.458Z,100185.56
2022-10-11T21:36:24.305Z,100180.72
2022-10-11T21:38:52.160Z,100175.84
2022-10-11T21:41:22.837Z,100176.38
2022-10-11T21:43:49.742Z,100179.88
2022-10-11T21:46:54.045Z,100180.28
2022-10-11T21:49:17.053Z,100174.53
2022-10-11T21:51:43.994Z,100169.91
2022-10-11T21:54:10.834Z,100174.53
2022-10-11T21:56:37.884Z,100173.47
2022-10-11T21:59:06.696Z,100179.63
2022-10-11T22:01:36.767Z,100175.31
2022-10-11T22:04:05.362Z,100175.00
2022-10-11T22:06:32.397Z,100172.69
2022-10-11T22:08:59.299Z,100172.56
2022-10-11T22:11:27.260Z,100167.09
2022-10-11T22:13:54.153Z,100169.63
2022-10-11T22:16:21.120Z,100165.56
2022-10-11T22:18:48.113Z,100166.28
2022-10-11T22:21:20.812Z,100169.28
2022-10-11T22:23:49.727Z,100165.69
2022-10-11T22:26:22.004Z,100165.41
2022-10-11T22:28:49.103Z,100162.75
2022-10-11T22:31:18.639Z,100166.97
2022-10-11T22:36:17.315Z,100163.13
2022-10-11T22:38:44.144Z,100170.78
2022-10-11T22:41:11.854Z,100164.16
2022-10-11T22:43:39.458Z,100163.97
2022-10-11T22:46:07.024Z,100171.09
2022-10-11T22:48:34.063Z,100165.06
2022-10-11T22:51:01.564Z,100176.25
2022-10-11T22:53:28.483Z,100169.53
2022-10-11T22:55:55.375Z,100170.50
2022-10-11T22:58:22.415Z,100157.03
2022-10-11T23:00:49.268Z,100155.69
2022-10-11T23:03:17.678Z,100163.03
2022-10-11T23:05:44.656Z,100163.38
2022-10-11T23:08:11.382Z,100159.94
2022-10-11T23:10:39.672Z,100166.63
2022-10-11T23:13:06.474Z,100163.03
2022-10-11T23:15:33.277Z,100162.53
2022-10-11T23:18:00.052Z,100164.41
2022-10-11T23:20:27.165Z,100167.34
2022-10-11T23:22:53.878Z,100163.75
2022-10-11T23:25:20.687Z,100160.03
2022-10-11T23:27:47.410Z,100166.97
2022-10-11T23:30:14.286Z,100161.81
2022-10-11T23:32:41.037Z,100158.41
2022-10-11T23:35:08.381Z,100163.88
2022-10-11T23:37:36.279Z,100164.34
2022-10-11T23:40:04.159Z,100168.81
2022-10-11T23:42:30.968Z,100178.91
2022-10-11T23:44:57.711Z,100180.50
2022-10-11T23:47:24.508Z,100169.53
2022-10-11T23:49:51.328Z,100178.38
2022-10-11T23:52:18.129Z,100171.13
2022-10-11T23:54:44.942Z,100182.34
2022-10-11T23:57:12.543Z,100175.56
2022-10-11T23:59:39.271Z,100177.94
